Terminal Aerodrome Forecast
Issued by NWS

Home | Current Version | Previous Version | Text Only | Print | Product List | Glossary On
Versions: 1 2 3 4 5 6 7 8 9 10 11 12 13 14 15 16 17 18 19
000
FTAK31 PAJN 261100
TAFAYA
TAF
PAYA 261125Z 2612/2712 VRB03KT P6SM VCSH FEW004 BKN050
     FM262100 34004KT P6SM BKN050
     FM270300 34004KT P6SM SCT050
      AMD LTD TO CLD VIS AND WIND 2701/2710=

USA.gov is the U.S. government's official web portal to all federal, state and local government web resources and services.